Terminal Aerodrome Forecast
Issued by NWS King Salmon, AK

Home | Current Version | Previous Version | Text Only | Print | Product List | Glossary On
Versions: 1 2 3 4 5 6 7 8 9 10 11 12 13 14 15 16 17 18 19 20 21 22 23 24 25
501
FTAK31 PANC 061139
TAFAKN
TAF
PAKN 061139Z 0612/0712 14008KT 3SM -SN BKN011
      TEMPO 0612/0614 2SM -SN BR BKN008
     FM061600 16005KT P6SM VCSH SCT010 BKN020
     FM061800 VRB05KT P6SM SCT050=

USA.gov is the U.S. government's official web portal to all federal, state and local government web resources and services.